sensor_id;sensor_type;location;lat;lon;timestamp;temperature;humidity
21928;DHT22;11128;51.096;17.190;2023-05-27T00:02:37;10.70;1.00
21928;DHT22;11128;51.096;17.190;2023-05-27T00:17:41;10.30;1.00
21928;DHT22;11128;51.096;17.190;2023-05-27T00:22:44;10.20;1.00
21928;DHT22;11128;51.096;17.190;2023-05-27T00:37:49;10.10;71.00
21928;DHT22;11128;51.096;17.190;2023-05-27T00:47:52;9.90;86.70
21928;DHT22;11128;51.096;17.190;2023-05-27T00:52:54;10.00;46.50
21928;DHT22;11128;51.096;17.190;2023-05-27T00:57:59;9.80;99.90
21928;DHT22;11128;51.096;17.190;2023-05-27T01:03:01;9.70;99.90
21928;DHT22;11128;51.096;17.190;2023-05-27T01:08:15;9.70;99.90
21928;DHT22;11128;51.096;17.190;2023-05-27T01:13:29;9.50;1.00
21928;DHT22;11128;51.096;17.190;2023-05-27T01:28:41;9.40;1.00
21928;DHT22;11128;51.096;17.190;2023-05-27T01:33:49;9.40;1.00
21928;DHT22;11128;51.096;17.190;2023-05-27T01:38:52;9.30;1.00
21928;DHT22;11128;51.096;17.190;2023-05-27T01:43:55;9.20;1.00
21928;DHT22;11128;51.096;17.190;2023-05-27T01:48:58;9.10;1.00
21928;DHT22;11128;51.096;17.190;2023-05-27T01:53:59;9.00;1.00
21928;DHT22;11128;51.096;17.190;2023-05-27T01:59:01;8.90;1.00
21928;DHT22;11128;51.096;17.190;2023-05-27T02:04:02;8.80;1.00
21928;DHT22;11128;51.096;17.190;2023-05-27T02:14:06;8.60;99.90
21928;DHT22;11128;51.096;17.190;2023-05-27T02:19:08;8.60;60.70
21928;DHT22;11128;51.096;17.190;2023-05-27T02:24:10;8.50;38.20
21928;DHT22;11128;51.096;17.190;2023-05-27T02:29:11;8.40;99.90
21928;DHT22;11128;51.096;17.190;2023-05-27T02:34:13;8.40;99.90
21928;DHT22;11128;51.096;17.190;2023-05-27T02:39:14;8.30;99.90
21928;DHT22;11128;51.096;17.190;2023-05-27T02:49:17;8.20;99.90
21928;DHT22;11128;51.096;17.190;2023-05-27T02:54:19;8.10;99.90
21928;DHT22;11128;51.096;17.190;2023-05-27T02:59:21;8.00;99.90
21928;DHT22;11128;51.096;17.190;2023-05-27T03:04:22;8.00;1.00
21928;DHT22;11128;51.096;17.190;2023-05-27T03:09:24;8.00;1.00
21928;DHT22;11128;51.096;17.190;2023-05-27T03:14:25;8.00;1.00
21928;DHT22;11128;51.096;17.190;2023-05-27T03:24:28;7.90;1.00
21928;DHT22;11128;51.096;17.190;2023-05-27T03:29:30;7.90;51.60
21928;DHT22;11128;51.096;17.190;2023-05-27T03:34:31;7.90;99.90
21928;DHT22;11128;51.096;17.190;2023-05-27T03:39:33;8.00;99.90
21928;DHT22;11128;51.096;17.190;2023-05-27T03:49:36;8.10;99.90
21928;DHT22;11128;51.096;17.190;2023-05-27T03:54:37;8.20;99.90
21928;DHT22;11128;51.096;17.190;2023-05-27T03:59:39;8.30;99.90
21928;DHT22;11128;51.096;17.190;2023-05-27T04:04:40;9.70;1.00
21928;DHT22;11128;51.096;17.190;2023-05-27T04:09:41;8.40;1.00
21928;DHT22;11128;51.096;17.190;2023-05-27T04:14:43;8.50;1.00
21928;DHT22;11128;51.096;17.190;2023-05-27T04:24:52;8.90;99.90
21928;DHT22;11128;51.096;17.190;2023-05-27T04:29:54;8.80;99.90
21928;DHT22;11128;51.096;17.190;2023-05-27T04:34:55;9.00;1.00
21928;DHT22;11128;51.096;17.190;2023-05-27T04:39:58;9.10;1.00
21928;DHT22;11128;51.096;17.190;2023-05-27T04:44:59;9.30;99.90
21928;DHT22;11128;51.096;17.190;2023-05-27T04:50:01;9.40;99.90
21928;DHT22;11128;51.096;17.190;2023-05-27T04:55:04;9.50;99.90
21928;DHT22;11128;51.096;17.190;2023-05-27T05:00:07;9.70;53.60
21928;DHT22;11128;51.096;17.190;2023-05-27T05:05:09;9.90;26.10
21928;DHT22;11128;51.096;17.190;2023-05-27T05:10:11;10.00;1.00
21928;DHT22;11128;51.096;17.190;2023-05-27T05:15:13;10.20;1.00
21928;DHT22;11128;51.096;17.190;2023-05-27T05:20:14;10.40;1.00
21928;DHT22;11128;51.096;17.190;2023-05-27T05:25:16;10.50;99.90
21928;DHT22;11128;51.096;17.190;2023-05-27T05:30:17;10.70;1.00
21928;DHT22;11128;51.096;17.190;2023-05-27T05:35:19;10.90;1.00
21928;DHT22;11128;51.096;17.190;2023-05-27T05:40:22;11.30;99.90
21928;DHT22;11128;51.096;17.190;2023-05-27T05:45:23;11.20;99.90
21928;DHT22;11128;51.096;17.190;2023-05-27T05:50:26;11.40;1.00
21928;DHT22;11128;51.096;17.190;2023-05-27T05:55:28;11.60;1.00
21928;DHT22;11128;51.096;17.190;2023-05-27T06:00:29;11.80;99.90
21928;DHT22;11128;51.096;17.190;2023-05-27T06:05:30;12.00;71.60
21928;DHT22;11128;51.096;17.190;2023-05-27T06:10:32;12.30;1.00
21928;DHT22;11128;51.096;17.190;2023-05-27T06:15:33;12.60;1.00
21928;DHT22;11128;51.096;17.190;2023-05-27T06:20:35;12.80;1.00
21928;DHT22;11128;51.096;17.190;2023-05-27T06:25:36;13.10;99.90
21928;DHT22;11128;51.096;17.190;2023-05-27T06:30:38;13.40;99.90
21928;DHT22;11128;51.096;17.190;2023-05-27T06:35:40;13.70;99.90
21928;DHT22;11128;51.096;17.190;2023-05-27T06:40:41;14.00;99.90
21928;DHT22;11128;51.096;17.190;2023-05-27T06:45:43;14.30;86.90
21928;DHT22;11128;51.096;17.190;2023-05-27T06:50:45;14.60;63.10
21928;DHT22;11128;51.096;17.190;2023-05-27T06:55:46;14.80;1.00
21928;DHT22;11128;51.096;17.190;2023-05-27T07:00:48;15.10;1.00
21928;DHT22;11128;51.096;17.190;2023-05-27T07:05:50;15.20;1.00
21928;DHT22;11128;51.096;17.190;2023-05-27T07:10:51;15.80;1.00
21928;DHT22;11128;51.096;17.190;2023-05-27T07:15:53;16.20;1.00
21928;DHT22;11128;51.096;17.190;2023-05-27T07:20:54;16.60;1.00
21928;DHT22;11128;51.096;17.190;2023-05-27T07:25:56;17.10;1.00
21928;DHT22;11128;51.096;17.190;2023-05-27T07:30:57;18.10;1.00
21928;DHT22;11128;51.096;17.190;2023-05-27T07:35:59;19.20;1.00
21928;DHT22;11128;51.096;17.190;2023-05-27T07:41:00;20.00;1.00
21928;DHT22;11128;51.096;17.190;2023-05-27T07:46:02;20.80;1.00
21928;DHT22;11128;51.096;17.190;2023-05-27T07:51:04;21.10;1.00
21928;DHT22;11128;51.096;17.190;2023-05-27T07:56:05;21.50;1.00
21928;DHT22;11128;51.096;17.190;2023-05-27T08:01:07;21.70;1.00
21928;DHT22;11128;51.096;17.190;2023-05-27T08:06:08;22.10;1.00
21928;DHT22;11128;51.096;17.190;2023-05-27T08:11:10;22.40;1.00
21928;DHT22;11128;51.096;17.190;2023-05-27T08:16:11;22.40;1.00
21928;DHT22;11128;51.096;17.190;2023-05-27T08:21:13;22.50;1.00
21928;DHT22;11128;51.096;17.190;2023-05-27T08:26:14;22.60;1.00
21928;DHT22;11128;51.096;17.190;2023-05-27T08:31:16;22.50;1.00
21928;DHT22;11128;51.096;17.190;2023-05-27T08:36:17;22.30;1.00
21928;DHT22;11128;51.096;17.190;2023-05-27T08:41:21;22.80;1.00
21928;DHT22;11128;51.096;17.190;2023-05-27T08:46:23;22.90;1.00
21928;DHT22;11128;51.096;17.190;2023-05-27T08:51:25;23.00;1.00
21928;DHT22;11128;51.096;17.190;2023-05-27T08:56:29;23.00;1.00
21928;DHT22;11128;51.096;17.190;2023-05-27T09:01:33;24.70;1.00
21928;DHT22;11128;51.096;17.190;2023-05-27T09:06:34;22.80;1.00
21928;DHT22;11128;51.096;17.190;2023-05-27T09:11:39;23.00;1.00
21928;DHT22;11128;51.096;17.190;2023-05-27T09:16:44;22.80;1.00
21928;DHT22;11128;51.096;17.190;2023-05-27T09:21:46;23.10;1.00
21928;DHT22;11128;51.096;17.190;2023-05-27T09:26:50;23.30;1.00
21928;DHT22;11128;51.096;17.190;2023-05-27T09:31:56;23.50;1.00
21928;DHT22;11128;51.096;17.190;2023-05-27T09:36:57;24.00;1.00
21928;DHT22;11128;51.096;17.190;2023-05-27T09:42:00;24.20;1.00
21928;DHT22;11128;51.096;17.190;2023-05-27T09:47:04;24.20;1.00
21928;DHT22;11128;51.096;17.190;2023-05-27T09:52:09;24.30;1.00
21928;DHT22;11128;51.096;17.190;2023-05-27T09:57:12;24.60;1.00
21928;DHT22;11128;51.096;17.190;2023-05-27T10:02:17;24.80;1.00
21928;DHT22;11128;51.096;17.190;2023-05-27T10:07:21;24.80;1.00
21928;DHT22;11128;51.096;17.190;2023-05-27T10:12:25;24.60;1.00
21928;DHT22;11128;51.096;17.190;2023-05-27T10:17:39;26.80;1.00
21928;DHT22;11128;51.096;17.190;2023-05-27T10:22:46;24.80;1.00
21928;DHT22;11128;51.096;17.190;2023-05-27T10:27:48;25.10;1.00
21928;DHT22;11128;51.096;17.190;2023-05-27T10:32:50;24.90;1.00
21928;DHT22;11128;51.096;17.190;2023-05-27T10:37:52;25.00;1.00
21928;DHT22;11128;51.096;17.190;2023-05-27T10:43:00;25.00;1.00
21928;DHT22;11128;51.096;17.190;2023-05-27T10:48:03;25.20;1.00
21928;DHT22;11128;51.096;17.190;2023-05-27T10:53:18;25.30;1.00
21928;DHT22;11128;51.096;17.190;2023-05-27T10:58:20;25.50;1.00
21928;DHT22;11128;51.096;17.190;2023-05-27T11:03:25;25.60;1.00
21928;DHT22;11128;51.096;17.190;2023-05-27T11:08:28;25.70;1.00
21928;DHT22;11128;51.096;17.190;2023-05-27T11:18:45;25.30;1.00
21928;DHT22;11128;51.096;17.190;2023-05-27T11:23:48;25.40;1.00
21928;DHT22;11128;51.096;17.190;2023-05-27T11:28:58;25.40;1.00
21928;DHT22;11128;51.096;17.190;2023-05-27T11:34:00;25.60;1.00
21928;DHT22;11128;51.096;17.190;2023-05-27T11:39:31;25.80;1.00
21928;DHT22;11128;51.096;17.190;2023-05-27T11:45:17;23.30;1.00
21928;DHT22;11128;51.096;17.190;2023-05-27T11:50:20;25.60;1.00
21928;DHT22;11128;51.096;17.190;2023-05-27T11:55:22;25.70;1.00
21928;DHT22;11128;51.096;17.190;2023-05-27T12:00:24;25.90;1.00
21928;DHT22;11128;51.096;17.190;2023-05-27T12:05:26;26.10;1.00
21928;DHT22;11128;51.096;17.190;2023-05-27T12:10:28;26.30;1.00
21928;DHT22;11128;51.096;17.190;2023-05-27T12:15:29;25.90;1.00
21928;DHT22;11128;51.096;17.190;2023-05-27T12:20:32;25.90;1.00
21928;DHT22;11128;51.096;17.190;2023-05-27T12:25:34;25.60;1.00
21928;DHT22;11128;51.096;17.190;2023-05-27T12:30:36;25.70;1.00
21928;DHT22;11128;51.096;17.190;2023-05-27T12:35:38;25.70;1.00
21928;DHT22;11128;51.096;17.190;2023-05-27T12:40:39;25.70;1.00
21928;DHT22;11128;51.096;17.190;2023-05-27T12:45:41;26.00;1.00
21928;DHT22;11128;51.096;17.190;2023-05-27T12:50:42;26.10;1.00
21928;DHT22;11128;51.096;17.190;2023-05-27T12:55:44;26.20;1.00
21928;DHT22;11128;51.096;17.190;2023-05-27T13:00:46;26.30;1.00
21928;DHT22;11128;51.096;17.190;2023-05-27T13:05:47;26.10;1.00
21928;DHT22;11128;51.096;17.190;2023-05-27T13:10:49;26.00;1.00
21928;DHT22;11128;51.096;17.190;2023-05-27T13:15:51;25.70;1.00
21928;DHT22;11128;51.096;17.190;2023-05-27T13:20:53;25.60;1.00
21928;DHT22;11128;51.096;17.190;2023-05-27T13:25:55;25.70;1.00
21928;DHT22;11128;51.096;17.190;2023-05-27T13:30:56;25.70;1.00
21928;DHT22;11128;51.096;17.190;2023-05-27T13:35:58;25.40;1.00
21928;DHT22;11128;51.096;17.190;2023-05-27T13:41:00;25.30;1.00
21928;DHT22;11128;51.096;17.190;2023-05-27T13:46:01;25.30;1.00
21928;DHT22;11128;51.096;17.190;2023-05-27T13:51:05;25.30;1.00
21928;DHT22;11128;51.096;17.190;2023-05-27T13:56:08;25.20;1.00
21928;DHT22;11128;51.096;17.190;2023-05-27T14:01:09;25.30;1.00
21928;DHT22;11128;51.096;17.190;2023-05-27T14:06:11;25.20;1.00
21928;DHT22;11128;51.096;17.190;2023-05-27T14:11:12;24.90;1.00
21928;DHT22;11128;51.096;17.190;2023-05-27T14:16:15;24.70;1.00
21928;DHT22;11128;51.096;17.190;2023-05-27T14:21:17;24.60;1.00
21928;DHT22;11128;51.096;17.190;2023-05-27T14:26:18;24.70;1.00
21928;DHT22;11128;51.096;17.190;2023-05-27T14:31:20;24.60;1.00
21928;DHT22;11128;51.096;17.190;2023-05-27T14:36:21;24.20;1.00
21928;DHT22;11128;51.096;17.190;2023-05-27T14:41:23;24.10;1.00
21928;DHT22;11128;51.096;17.190;2023-05-27T14:46:26;24.00;1.00
21928;DHT22;11128;51.096;17.190;2023-05-27T14:51:27;23.60;1.00
21928;DHT22;11128;51.096;17.190;2023-05-27T14:56:30;23.70;1.00
21928;DHT22;11128;51.096;17.190;2023-05-27T15:01:32;23.70;1.00
21928;DHT22;11128;51.096;17.190;2023-05-27T15:06:33;23.60;1.00
21928;DHT22;11128;51.096;17.190;2023-05-27T15:11:35;23.50;1.00
21928;DHT22;11128;51.096;17.190;2023-05-27T15:16:37;23.30;1.00
21928;DHT22;11128;51.096;17.190;2023-05-27T15:21:39;23.10;1.00
21928;DHT22;11128;51.096;17.190;2023-05-27T15:26:40;23.00;1.00
21928;DHT22;11128;51.096;17.190;2023-05-27T15:31:42;22.80;1.00
21928;DHT22;11128;51.096;17.190;2023-05-27T15:36:43;22.60;1.00
21928;DHT22;11128;51.096;17.190;2023-05-27T15:41:44;22.30;1.00
21928;DHT22;11128;51.096;17.190;2023-05-27T15:46:46;22.20;1.00
21928;DHT22;11128;51.096;17.190;2023-05-27T15:51:53;22.10;1.00
21928;DHT22;11128;51.096;17.190;2023-05-27T15:56:55;22.00;1.00
21928;DHT22;11128;51.096;17.190;2023-05-27T16:01:56;21.90;1.00
21928;DHT22;11128;51.096;17.190;2023-05-27T16:11:59;22.50;1.00
21928;DHT22;11128;51.096;17.190;2023-05-27T16:17:03;21.40;1.00
21928;DHT22;11128;51.096;17.190;2023-05-27T16:22:05;21.20;1.00
21928;DHT22;11128;51.096;17.190;2023-05-27T16:27:06;21.00;1.00
21928;DHT22;11128;51.096;17.190;2023-05-27T16:32:08;20.90;1.00
21928;DHT22;11128;51.096;17.190;2023-05-27T16:37:09;20.80;1.00
21928;DHT22;11128;51.096;17.190;2023-05-27T16:42:16;20.70;1.00
21928;DHT22;11128;51.096;17.190;2023-05-27T16:47:26;20.60;1.00
21928;DHT22;11128;51.096;17.190;2023-05-27T16:52:31;20.40;1.00
21928;DHT22;11128;51.096;17.190;2023-05-27T16:57:40;20.30;1.00
21928;DHT22;11128;51.096;17.190;2023-05-27T17:02:44;20.20;1.00
21928;DHT22;11128;51.096;17.190;2023-05-27T17:07:52;20.00;1.00
21928;DHT22;11128;51.096;17.190;2023-05-27T17:13:01;19.80;1.00
21928;DHT22;11128;51.096;17.190;2023-05-27T17:18:03;19.70;1.00
21928;DHT22;11128;51.096;17.190;2023-05-27T17:23:05;19.50;1.00
21928;DHT22;11128;51.096;17.190;2023-05-27T17:28:06;19.50;1.00
21928;DHT22;11128;51.096;17.190;2023-05-27T17:33:09;19.40;1.00
21928;DHT22;11128;51.096;17.190;2023-05-27T17:38:11;19.20;1.00
21928;DHT22;11128;51.096;17.190;2023-05-27T17:43:12;19.10;1.00
21928;DHT22;11128;51.096;17.190;2023-05-27T17:48:14;19.00;1.00
21928;DHT22;11128;51.096;17.190;2023-05-27T17:53:15;18.90;1.00
21928;DHT22;11128;51.096;17.190;2023-05-27T17:58:17;18.70;1.00
21928;DHT22;11128;51.096;17.190;2023-05-27T18:03:19;18.60;1.00
21928;DHT22;11128;51.096;17.190;2023-05-27T18:08:20;18.30;1.00
21928;DHT22;11128;51.096;17.190;2023-05-27T18:13:22;18.20;1.00
21928;DHT22;11128;51.096;17.190;2023-05-27T18:18:23;18.00;1.00
21928;DHT22;11128;51.096;17.190;2023-05-27T18:23:25;17.80;1.00
21928;DHT22;11128;51.096;17.190;2023-05-27T18:28:26;17.60;1.00
21928;DHT22;11128;51.096;17.190;2023-05-27T18:33:28;17.40;1.00
21928;DHT22;11128;51.096;17.190;2023-05-27T18:38:29;17.20;1.00
21928;DHT22;11128;51.096;17.190;2023-05-27T18:43:31;16.90;1.00
21928;DHT22;11128;51.096;17.190;2023-05-27T18:48:32;16.70;1.00
21928;DHT22;11128;51.096;17.190;2023-05-27T18:53:34;16.40;1.00
21928;DHT22;11128;51.096;17.190;2023-05-27T18:58:37;16.20;1.00
21928;DHT22;11128;51.096;17.190;2023-05-27T19:03:40;16.00;1.00
21928;DHT22;11128;51.096;17.190;2023-05-27T19:08:54;15.90;1.00
21928;DHT22;11128;51.096;17.190;2023-05-27T19:13:55;15.70;1.00
21928;DHT22;11128;51.096;17.190;2023-05-27T19:23:59;15.30;1.00
21928;DHT22;11128;51.096;17.190;2023-05-27T19:39:04;14.80;1.00
21928;DHT22;11128;51.096;17.190;2023-05-27T19:44:05;14.60;1.00
21928;DHT22;11128;51.096;17.190;2023-05-27T19:59:10;14.00;1.00
21928;DHT22;11128;51.096;17.190;2023-05-27T20:04:13;13.90;1.00
21928;DHT22;11128;51.096;17.190;2023-05-27T20:54:31;12.30;99.90
21928;DHT22;11128;51.096;17.190;2023-05-27T20:59:33;12.10;99.90
21928;DHT22;11128;51.096;17.190;2023-05-27T21:09:39;11.90;1.00
21928;DHT22;11128;51.096;17.190;2023-05-27T21:44:51;11.20;1.00
21928;DHT22;11128;51.096;17.190;2023-05-27T21:59:55;10.90;1.00
21928;DHT22;11128;51.096;17.190;2023-05-27T22:20:03;10.40;1.00
21928;DHT22;11128;51.096;17.190;2023-05-27T22:25:05;10.30;49.70
21928;DHT22;11128;51.096;17.190;2023-05-27T22:30:08;10.50;99.90
21928;DHT22;11128;51.096;17.190;2023-05-27T22:35:09;10.00;99.90
21928;DHT22;11128;51.096;17.190;2023-05-27T22:40:11;9.90;99.90
21928;DHT22;11128;51.096;17.190;2023-05-27T22:45:13;9.80;99.90
21928;DHT22;11128;51.096;17.190;2023-05-27T23:00:17;9.50;99.90
21928;DHT22;11128;51.096;17.190;2023-05-27T23:15:21;9.30;1.00
21928;DHT22;11128;51.096;17.190;2023-05-27T23:30:27;8.80;1.00
21928;DHT22;11128;51.096;17.190;2023-05-27T23:45:33;8.60;1.00
21928;DHT22;11128;51.096;17.190;2023-05-27T23:50:35;8.70;99.90
